Andover, Kansas
Current Conditions -  °F | °C
As of 5:03 PM on Sunday 21 Dec 2014 (Local Time) from KAAO Reporting Station
Light Rain Light Rain  
Wind Chill:   Ceiling: 500
Heat Index:   Visibility: 5mi
Dew Point:   Wind: 15mph
Humidity: 96%   Direction: 170°S
Pressure: 29.73"   Gusts: 23mph
Location:  37.71°N, 97.14°W
Report Text: KAAO 212303Z AUTO 17013G20KT 5SM -RA BR OVC005 07/06 A2973 RMK AO2 CIG 004V008 P0000 T00670061
Loading
Personal Weather Stations






























Interactive Weather Map New forecast layout! Learn more

10-Day Weather Forecast

Advertisements
Track Severe Weather on mobile